sensor_id;sensor_type;location;lat;lon;timestamp;P1;durP1;ratioP1;P2;durP2;ratioP2
14592;SDS011;7383;52.354;9.756;2023-11-21T00:01:31;4.38;;;3.45;;
14592;SDS011;7383;52.354;9.756;2023-11-21T00:03:58;7.03;;;3.65;;
14592;SDS011;7383;52.354;9.756;2023-11-21T00:06:28;4.25;;;3.42;;
14592;SDS011;7383;52.354;9.756;2023-11-21T00:08:55;6.78;;;4.38;;
14592;SDS011;7383;52.354;9.756;2023-11-21T00:11:24;4.15;;;3.50;;
14592;SDS011;7383;52.354;9.756;2023-11-21T00:13:51;5.25;;;3.72;;
14592;SDS011;7383;52.354;9.756;2023-11-21T00:16:19;5.43;;;3.97;;
14592;SDS011;7383;52.354;9.756;2023-11-21T00:18:47;4.18;;;3.88;;
14592;SDS011;7383;52.354;9.756;2023-11-21T00:21:17;4.53;;;4.20;;
14592;SDS011;7383;52.354;9.756;2023-11-21T00:23:45;4.20;;;3.80;;
14592;SDS011;7383;52.354;9.756;2023-11-21T00:26:11;5.43;;;4.18;;
14592;SDS011;7383;52.354;9.756;2023-11-21T00:28:41;4.75;;;3.85;;
14592;SDS011;7383;52.354;9.756;2023-11-21T00:31:08;5.05;;;4.10;;
14592;SDS011;7383;52.354;9.756;2023-11-21T00:33:34;4.97;;;3.70;;
14592;SDS011;7383;52.354;9.756;2023-11-21T00:36:01;4.18;;;3.78;;
14592;SDS011;7383;52.354;9.756;2023-11-21T00:38:28;5.60;;;4.07;;
14592;SDS011;7383;52.354;9.756;2023-11-21T00:40:56;4.45;;;3.50;;
14592;SDS011;7383;52.354;9.756;2023-11-21T00:43:23;4.32;;;3.92;;
14592;SDS011;7383;52.354;9.756;2023-11-21T00:45:50;4.28;;;3.88;;
14592;SDS011;7383;52.354;9.756;2023-11-21T00:48:17;4.30;;;3.63;;
14592;SDS011;7383;52.354;9.756;2023-11-21T00:50:44;4.40;;;3.97;;
14592;SDS011;7383;52.354;9.756;2023-11-21T00:53:10;5.00;;;3.78;;
14592;SDS011;7383;52.354;9.756;2023-11-21T00:55:37;5.18;;;4.22;;
14592;SDS011;7383;52.354;9.756;2023-11-21T00:58:06;5.38;;;4.35;;
14592;SDS011;7383;52.354;9.756;2023-11-21T01:00:33;6.35;;;4.75;;
14592;SDS011;7383;52.354;9.756;2023-11-21T01:02:59;4.22;;;3.83;;
14592;SDS011;7383;52.354;9.756;2023-11-21T01:05:27;4.90;;;3.80;;
14592;SDS011;7383;52.354;9.756;2023-11-21T01:07:54;5.63;;;4.82;;
14592;SDS011;7383;52.354;9.756;2023-11-21T01:10:21;5.57;;;3.80;;
14592;SDS011;7383;52.354;9.756;2023-11-21T01:12:47;6.30;;;4.53;;
14592;SDS011;7383;52.354;9.756;2023-11-21T01:15:15;5.40;;;4.20;;
14592;SDS011;7383;52.354;9.756;2023-11-21T01:17:42;5.53;;;4.68;;
14592;SDS011;7383;52.354;9.756;2023-11-21T01:20:08;6.50;;;4.82;;
14592;SDS011;7383;52.354;9.756;2023-11-21T01:22:37;8.73;;;5.18;;
14592;SDS011;7383;52.354;9.756;2023-11-21T01:25:04;5.78;;;4.28;;
14592;SDS011;7383;52.354;9.756;2023-11-21T01:27:32;7.00;;;5.00;;
14592;SDS011;7383;52.354;9.756;2023-11-21T01:29:59;6.07;;;4.88;;
14592;SDS011;7383;52.354;9.756;2023-11-21T01:32:26;5.85;;;5.20;;
14592;SDS011;7383;52.354;9.756;2023-11-21T01:34:54;6.85;;;5.40;;
14592;SDS011;7383;52.354;9.756;2023-11-21T01:37:21;6.25;;;5.15;;
14592;SDS011;7383;52.354;9.756;2023-11-21T01:39:47;5.88;;;5.28;;
14592;SDS011;7383;52.354;9.756;2023-11-21T01:42:14;6.45;;;5.30;;
14592;SDS011;7383;52.354;9.756;2023-11-21T01:44:40;7.10;;;5.20;;
14592;SDS011;7383;52.354;9.756;2023-11-21T01:47:07;10.55;;;5.90;;
14592;SDS011;7383;52.354;9.756;2023-11-21T01:49:36;7.18;;;5.88;;
14592;SDS011;7383;52.354;9.756;2023-11-21T01:52:04;8.57;;;6.43;;
14592;SDS011;7383;52.354;9.756;2023-11-21T01:54:31;6.93;;;5.65;;
14592;SDS011;7383;52.354;9.756;2023-11-21T01:56:59;12.60;;;8.43;;
14592;SDS011;7383;52.354;9.756;2023-11-21T01:59:28;13.55;;;7.53;;
14592;SDS011;7383;52.354;9.756;2023-11-21T02:02:01;10.68;;;7.45;;
14592;SDS011;7383;52.354;9.756;2023-11-21T02:04:29;8.80;;;6.53;;
14592;SDS011;7383;52.354;9.756;2023-11-21T02:06:58;8.77;;;6.65;;
14592;SDS011;7383;52.354;9.756;2023-11-21T02:09:25;8.77;;;6.85;;
14592;SDS011;7383;52.354;9.756;2023-11-21T02:11:52;9.15;;;6.25;;
14592;SDS011;7383;52.354;9.756;2023-11-21T02:14:19;6.75;;;5.82;;
14592;SDS011;7383;52.354;9.756;2023-11-21T02:16:47;9.15;;;6.47;;
14592;SDS011;7383;52.354;9.756;2023-11-21T02:19:15;9.65;;;7.40;;
14592;SDS011;7383;52.354;9.756;2023-11-21T02:21:48;9.02;;;7.35;;
14592;SDS011;7383;52.354;9.756;2023-11-21T02:24:17;8.75;;;7.20;;
14592;SDS011;7383;52.354;9.756;2023-11-21T02:26:45;9.00;;;6.78;;
14592;SDS011;7383;52.354;9.756;2023-11-21T02:29:12;11.25;;;7.35;;
14592;SDS011;7383;52.354;9.756;2023-11-21T02:31:38;8.00;;;6.28;;
14592;SDS011;7383;52.354;9.756;2023-11-21T02:34:12;8.60;;;6.78;;
14592;SDS011;7383;52.354;9.756;2023-11-21T02:36:39;9.15;;;7.03;;
14592;SDS011;7383;52.354;9.756;2023-11-21T02:39:07;8.15;;;6.28;;
14592;SDS011;7383;52.354;9.756;2023-11-21T02:41:35;9.32;;;6.80;;
14592;SDS011;7383;52.354;9.756;2023-11-21T02:44:02;8.50;;;6.63;;
14592;SDS011;7383;52.354;9.756;2023-11-21T02:46:31;12.05;;;7.25;;
14592;SDS011;7383;52.354;9.756;2023-11-21T02:48:58;7.85;;;6.95;;
14592;SDS011;7383;52.354;9.756;2023-11-21T02:51:25;9.63;;;6.57;;
14592;SDS011;7383;52.354;9.756;2023-11-21T02:53:52;8.50;;;6.95;;
14592;SDS011;7383;52.354;9.756;2023-11-21T02:56:18;9.10;;;6.68;;
14592;SDS011;7383;52.354;9.756;2023-11-21T02:58:46;10.68;;;6.93;;
14592;SDS011;7383;52.354;9.756;2023-11-21T03:01:13;8.98;;;7.57;;
14592;SDS011;7383;52.354;9.756;2023-11-21T03:03:40;9.68;;;7.40;;
14592;SDS011;7383;52.354;9.756;2023-11-21T03:06:07;9.23;;;7.78;;
14592;SDS011;7383;52.354;9.756;2023-11-21T03:08:33;13.32;;;8.77;;
14592;SDS011;7383;52.354;9.756;2023-11-21T03:11:00;9.23;;;7.40;;
14592;SDS011;7383;52.354;9.756;2023-11-21T03:13:28;9.60;;;7.70;;
14592;SDS011;7383;52.354;9.756;2023-11-21T03:15:58;7.93;;;6.85;;
14592;SDS011;7383;52.354;9.756;2023-11-21T03:18:24;10.27;;;8.27;;
14592;SDS011;7383;52.354;9.756;2023-11-21T03:20:51;11.68;;;8.40;;
14592;SDS011;7383;52.354;9.756;2023-11-21T03:23:18;9.55;;;7.68;;
14592;SDS011;7383;52.354;9.756;2023-11-21T03:25:45;10.13;;;8.05;;
14592;SDS011;7383;52.354;9.756;2023-11-21T03:28:11;12.27;;;8.18;;
14592;SDS011;7383;52.354;9.756;2023-11-21T03:30:38;11.18;;;7.85;;
14592;SDS011;7383;52.354;9.756;2023-11-21T03:33:06;8.52;;;7.03;;
14592;SDS011;7383;52.354;9.756;2023-11-21T03:35:33;10.15;;;7.45;;
14592;SDS011;7383;52.354;9.756;2023-11-21T03:37:59;8.48;;;7.20;;
14592;SDS011;7383;52.354;9.756;2023-11-21T03:40:26;10.27;;;7.40;;
14592;SDS011;7383;52.354;9.756;2023-11-21T03:42:52;10.75;;;8.38;;
14592;SDS011;7383;52.354;9.756;2023-11-21T03:45:19;8.68;;;7.70;;
14592;SDS011;7383;52.354;9.756;2023-11-21T03:47:45;11.32;;;8.68;;
14592;SDS011;7383;52.354;9.756;2023-11-21T03:50:13;10.82;;;8.32;;
14592;SDS011;7383;52.354;9.756;2023-11-21T03:52:40;10.35;;;8.32;;
14592;SDS011;7383;52.354;9.756;2023-11-21T03:55:07;10.05;;;8.00;;
14592;SDS011;7383;52.354;9.756;2023-11-21T03:57:35;12.35;;;9.30;;
14592;SDS011;7383;52.354;9.756;2023-11-21T04:00:02;11.02;;;9.00;;
14592;SDS011;7383;52.354;9.756;2023-11-21T04:02:33;11.75;;;9.30;;
14592;SDS011;7383;52.354;9.756;2023-11-21T04:05:00;13.00;;;9.32;;
14592;SDS011;7383;52.354;9.756;2023-11-21T04:07:28;12.73;;;9.52;;
14592;SDS011;7383;52.354;9.756;2023-11-21T04:09:54;14.20;;;9.15;;
14592;SDS011;7383;52.354;9.756;2023-11-21T04:12:21;10.77;;;8.85;;
14592;SDS011;7383;52.354;9.756;2023-11-21T04:14:48;13.38;;;9.50;;
14592;SDS011;7383;52.354;9.756;2023-11-21T04:17:17;12.35;;;9.30;;
14592;SDS011;7383;52.354;9.756;2023-11-21T04:19:44;10.65;;;8.60;;
14592;SDS011;7383;52.354;9.756;2023-11-21T04:22:11;12.43;;;9.68;;
14592;SDS011;7383;52.354;9.756;2023-11-21T04:24:39;12.80;;;8.85;;
14592;SDS011;7383;52.354;9.756;2023-11-21T04:27:06;12.77;;;9.30;;
14592;SDS011;7383;52.354;9.756;2023-11-21T04:29:33;10.70;;;9.05;;
14592;SDS011;7383;52.354;9.756;2023-11-21T04:32:00;11.85;;;9.45;;
14592;SDS011;7383;52.354;9.756;2023-11-21T04:34:27;13.02;;;10.10;;
14592;SDS011;7383;52.354;9.756;2023-11-21T04:36:55;16.20;;;10.30;;
14592;SDS011;7383;52.354;9.756;2023-11-21T04:39:22;11.00;;;8.90;;
14592;SDS011;7383;52.354;9.756;2023-11-21T04:41:50;16.30;;;10.75;;
14592;SDS011;7383;52.354;9.756;2023-11-21T04:44:17;16.92;;;10.88;;
14592;SDS011;7383;52.354;9.756;2023-11-21T04:46:44;12.82;;;9.82;;
14592;SDS011;7383;52.354;9.756;2023-11-21T04:49:10;15.10;;;9.93;;
14592;SDS011;7383;52.354;9.756;2023-11-21T04:51:37;15.35;;;10.68;;
14592;SDS011;7383;52.354;9.756;2023-11-21T04:54:03;13.68;;;9.98;;
14592;SDS011;7383;52.354;9.756;2023-11-21T04:56:30;22.98;;;12.38;;
14592;SDS011;7383;52.354;9.756;2023-11-21T04:58:59;18.33;;;11.48;;
14592;SDS011;7383;52.354;9.756;2023-11-21T05:01:25;17.10;;;11.23;;
14592;SDS011;7383;52.354;9.756;2023-11-21T05:03:52;14.13;;;10.32;;
14592;SDS011;7383;52.354;9.756;2023-11-21T05:06:19;16.02;;;10.63;;
14592;SDS011;7383;52.354;9.756;2023-11-21T05:08:45;11.98;;;9.95;;
14592;SDS011;7383;52.354;9.756;2023-11-21T05:11:12;13.40;;;9.88;;
14592;SDS011;7383;52.354;9.756;2023-11-21T05:13:49;12.80;;;10.13;;
14592;SDS011;7383;52.354;9.756;2023-11-21T05:16:18;14.38;;;9.65;;
14592;SDS011;7383;52.354;9.756;2023-11-21T05:18:45;14.73;;;9.82;;
14592;SDS011;7383;52.354;9.756;2023-11-21T05:21:11;13.50;;;11.18;;
14592;SDS011;7383;52.354;9.756;2023-11-21T05:23:38;11.48;;;9.20;;
14592;SDS011;7383;52.354;9.756;2023-11-21T05:26:05;11.70;;;9.25;;
14592;SDS011;7383;52.354;9.756;2023-11-21T05:28:31;8.95;;;8.05;;
14592;SDS011;7383;52.354;9.756;2023-11-21T05:30:58;10.30;;;8.85;;
14592;SDS011;7383;52.354;9.756;2023-11-21T05:33:26;12.02;;;8.32;;
14592;SDS011;7383;52.354;9.756;2023-11-21T05:35:53;9.65;;;8.07;;
14592;SDS011;7383;52.354;9.756;2023-11-21T05:38:20;10.43;;;8.77;;
14592;SDS011;7383;52.354;9.756;2023-11-21T05:40:47;8.63;;;7.55;;
14592;SDS011;7383;52.354;9.756;2023-11-21T05:43:13;9.52;;;7.80;;
14592;SDS011;7383;52.354;9.756;2023-11-21T05:45:40;7.57;;;6.75;;
14592;SDS011;7383;52.354;9.756;2023-11-21T05:48:07;6.60;;;6.00;;
14592;SDS011;7383;52.354;9.756;2023-11-21T05:50:35;7.88;;;6.38;;
14592;SDS011;7383;52.354;9.756;2023-11-21T05:53:02;8.52;;;6.80;;
14592;SDS011;7383;52.354;9.756;2023-11-21T05:55:29;7.38;;;6.45;;
14592;SDS011;7383;52.354;9.756;2023-11-21T05:57:57;6.80;;;5.55;;
14592;SDS011;7383;52.354;9.756;2023-11-21T06:00:24;6.03;;;5.43;;
14592;SDS011;7383;52.354;9.756;2023-11-21T06:02:53;5.45;;;4.95;;
14592;SDS011;7383;52.354;9.756;2023-11-21T06:05:21;6.10;;;5.35;;
14592;SDS011;7383;52.354;9.756;2023-11-21T06:07:51;5.80;;;5.20;;
14592;SDS011;7383;52.354;9.756;2023-11-21T06:10:19;5.65;;;4.93;;
14592;SDS011;7383;52.354;9.756;2023-11-21T06:12:49;5.60;;;4.90;;
14592;SDS011;7383;52.354;9.756;2023-11-21T06:15:16;4.90;;;4.50;;
14592;SDS011;7383;52.354;9.756;2023-11-21T06:17:44;4.57;;;4.18;;
14592;SDS011;7383;52.354;9.756;2023-11-21T06:20:14;4.35;;;3.95;;
14592;SDS011;7383;52.354;9.756;2023-11-21T06:22:43;4.03;;;3.72;;
14592;SDS011;7383;52.354;9.756;2023-11-21T06:25:16;4.60;;;4.20;;
14592;SDS011;7383;52.354;9.756;2023-11-21T06:27:44;4.60;;;4.20;;
14592;SDS011;7383;52.354;9.756;2023-11-21T06:30:12;4.43;;;4.03;;
14592;SDS011;7383;52.354;9.756;2023-11-21T06:32:40;5.05;;;4.55;;
14592;SDS011;7383;52.354;9.756;2023-11-21T06:35:10;4.90;;;4.40;;
14592;SDS011;7383;52.354;9.756;2023-11-21T06:37:38;5.47;;;4.93;;
14592;SDS011;7383;52.354;9.756;2023-11-21T06:40:05;5.22;;;4.72;;
14592;SDS011;7383;52.354;9.756;2023-11-21T06:42:34;5.07;;;4.57;;
14592;SDS011;7383;52.354;9.756;2023-11-21T06:45:02;4.72;;;4.32;;
14592;SDS011;7383;52.354;9.756;2023-11-21T06:47:29;4.93;;;4.43;;
14592;SDS011;7383;52.354;9.756;2023-11-21T06:49:56;5.72;;;5.20;;
14592;SDS011;7383;52.354;9.756;2023-11-21T06:52:23;4.82;;;4.43;;
14592;SDS011;7383;52.354;9.756;2023-11-21T06:54:50;3.83;;;3.53;;
14592;SDS011;7383;52.354;9.756;2023-11-21T06:57:17;3.70;;;3.33;;
14592;SDS011;7383;52.354;9.756;2023-11-21T06:59:45;3.38;;;3.08;;
14592;SDS011;7383;52.354;9.756;2023-11-21T07:02:11;3.40;;;3.20;;
14592;SDS011;7383;52.354;9.756;2023-11-21T07:04:38;3.20;;;3.00;;
14592;SDS011;7383;52.354;9.756;2023-11-21T07:07:06;4.20;;;3.20;;
14592;SDS011;7383;52.354;9.756;2023-11-21T07:09:34;3.58;;;3.03;;
14592;SDS011;7383;52.354;9.756;2023-11-21T07:12:00;2.83;;;2.63;;
14592;SDS011;7383;52.354;9.756;2023-11-21T07:14:31;3.15;;;2.90;;
14592;SDS011;7383;52.354;9.756;2023-11-21T07:16:59;3.28;;;3.08;;
14592;SDS011;7383;52.354;9.756;2023-11-21T07:19:27;3.40;;;3.10;;
14592;SDS011;7383;52.354;9.756;2023-11-21T07:21:54;3.35;;;3.08;;
14592;SDS011;7383;52.354;9.756;2023-11-21T07:24:21;3.00;;;2.80;;
14592;SDS011;7383;52.354;9.756;2023-11-21T07:26:48;2.78;;;2.58;;
14592;SDS011;7383;52.354;9.756;2023-11-21T07:29:15;3.22;;;3.00;;
14592;SDS011;7383;52.354;9.756;2023-11-21T07:31:43;2.90;;;2.70;;
14592;SDS011;7383;52.354;9.756;2023-11-21T07:34:10;3.20;;;3.00;;
14592;SDS011;7383;52.354;9.756;2023-11-21T07:36:37;3.17;;;2.97;;
14592;SDS011;7383;52.354;9.756;2023-11-21T07:39:04;3.00;;;2.80;;
14592;SDS011;7383;52.354;9.756;2023-11-21T07:41:31;2.90;;;2.70;;
14592;SDS011;7383;52.354;9.756;2023-11-21T07:43:58;3.00;;;2.80;;
14592;SDS011;7383;52.354;9.756;2023-11-21T07:46:26;3.42;;;2.97;;
14592;SDS011;7383;52.354;9.756;2023-11-21T07:48:52;3.30;;;3.10;;
14592;SDS011;7383;52.354;9.756;2023-11-21T07:51:22;2.90;;;2.70;;
14592;SDS011;7383;52.354;9.756;2023-11-21T07:53:49;2.90;;;2.70;;
14592;SDS011;7383;52.354;9.756;2023-11-21T07:56:18;3.15;;;2.85;;
14592;SDS011;7383;52.354;9.756;2023-11-21T07:58:45;2.80;;;2.60;;
14592;SDS011;7383;52.354;9.756;2023-11-21T08:01:11;2.60;;;2.40;;
14592;SDS011;7383;52.354;9.756;2023-11-21T08:03:38;3.63;;;3.15;;
14592;SDS011;7383;52.354;9.756;2023-11-21T08:06:04;3.13;;;2.92;;
14592;SDS011;7383;52.354;9.756;2023-11-21T08:08:33;3.28;;;3.08;;
14592;SDS011;7383;52.354;9.756;2023-11-21T08:11:00;3.45;;;3.08;;
14592;SDS011;7383;52.354;9.756;2023-11-21T08:13:27;3.00;;;2.80;;
14592;SDS011;7383;52.354;9.756;2023-11-21T08:15:55;4.13;;;3.83;;
14592;SDS011;7383;52.354;9.756;2023-11-21T08:18:23;4.20;;;3.80;;
14592;SDS011;7383;52.354;9.756;2023-11-21T08:20:50;3.85;;;3.55;;
14592;SDS011;7383;52.354;9.756;2023-11-21T08:23:16;4.05;;;3.65;;
14592;SDS011;7383;52.354;9.756;2023-11-21T08:25:44;4.50;;;4.10;;
14592;SDS011;7383;52.354;9.756;2023-11-21T08:28:11;4.03;;;3.72;;
14592;SDS011;7383;52.354;9.756;2023-11-21T08:30:39;4.80;;;4.40;;
14592;SDS011;7383;52.354;9.756;2023-11-21T08:33:06;4.40;;;4.10;;
14592;SDS011;7383;52.354;9.756;2023-11-21T08:35:33;5.07;;;4.60;;
14592;SDS011;7383;52.354;9.756;2023-11-21T08:38:02;5.07;;;4.57;;
14592;SDS011;7383;52.354;9.756;2023-11-21T08:40:29;4.95;;;4.55;;
14592;SDS011;7383;52.354;9.756;2023-11-21T08:42:57;5.22;;;4.72;;
14592;SDS011;7383;52.354;9.756;2023-11-21T08:45:24;5.47;;;4.97;;
14592;SDS011;7383;52.354;9.756;2023-11-21T08:47:51;5.95;;;5.35;;
14592;SDS011;7383;52.354;9.756;2023-11-21T08:50:19;5.18;;;4.78;;
14592;SDS011;7383;52.354;9.756;2023-11-21T08:52:45;5.07;;;4.68;;
14592;SDS011;7383;52.354;9.756;2023-11-21T08:55:12;5.40;;;4.90;;
14592;SDS011;7383;52.354;9.756;2023-11-21T08:57:39;6.05;;;5.53;;
14592;SDS011;7383;52.354;9.756;2023-11-21T09:00:09;5.90;;;5.40;;
14592;SDS011;7383;52.354;9.756;2023-11-21T09:02:37;5.47;;;4.97;;
14592;SDS011;7383;52.354;9.756;2023-11-21T09:05:04;6.28;;;5.70;;
14592;SDS011;7383;52.354;9.756;2023-11-21T09:07:32;5.60;;;5.10;;
14592;SDS011;7383;52.354;9.756;2023-11-21T09:09:59;5.32;;;4.85;;
14592;SDS011;7383;52.354;9.756;2023-11-21T09:12:25;5.15;;;4.72;;
14592;SDS011;7383;52.354;9.756;2023-11-21T09:14:52;5.68;;;5.18;;
14592;SDS011;7383;52.354;9.756;2023-11-21T09:17:20;5.72;;;5.22;;
14592;SDS011;7383;52.354;9.756;2023-11-21T09:19:46;5.05;;;4.65;;
14592;SDS011;7383;52.354;9.756;2023-11-21T09:22:16;5.65;;;5.03;;
14592;SDS011;7383;52.354;9.756;2023-11-21T09:24:43;5.13;;;4.72;;
14592;SDS011;7383;52.354;9.756;2023-11-21T09:27:09;4.63;;;4.30;;
14592;SDS011;7383;52.354;9.756;2023-11-21T09:29:36;4.57;;;4.18;;
14592;SDS011;7383;52.354;9.756;2023-11-21T09:32:03;4.70;;;4.35;;
14592;SDS011;7383;52.354;9.756;2023-11-21T09:34:34;4.95;;;4.55;;
14592;SDS011;7383;52.354;9.756;2023-11-21T09:37:03;5.57;;;5.07;;
14592;SDS011;7383;52.354;9.756;2023-11-21T09:39:31;4.88;;;4.43;;
14592;SDS011;7383;52.354;9.756;2023-11-21T09:41:59;4.53;;;4.13;;
14592;SDS011;7383;52.354;9.756;2023-11-21T09:44:35;5.07;;;4.65;;
14592;SDS011;7383;52.354;9.756;2023-11-21T09:47:08;4.75;;;4.35;;
14592;SDS011;7383;52.354;9.756;2023-11-21T09:49:40;4.97;;;4.47;;
14592;SDS011;7383;52.354;9.756;2023-11-21T09:52:07;4.43;;;4.03;;
14592;SDS011;7383;52.354;9.756;2023-11-21T09:54:36;4.30;;;4.00;;
14592;SDS011;7383;52.354;9.756;2023-11-21T09:57:02;4.45;;;4.05;;
14592;SDS011;7383;52.354;9.756;2023-11-21T09:59:30;4.82;;;4.30;;
14592;SDS011;7383;52.354;9.756;2023-11-21T10:01:58;4.25;;;3.92;;
14592;SDS011;7383;52.354;9.756;2023-11-21T10:04:25;4.45;;;4.13;;
14592;SDS011;7383;52.354;9.756;2023-11-21T10:06:53;4.20;;;3.90;;
14592;SDS011;7383;52.354;9.756;2023-11-21T10:09:20;4.82;;;4.50;;
14592;SDS011;7383;52.354;9.756;2023-11-21T10:11:47;4.40;;;4.00;;
14592;SDS011;7383;52.354;9.756;2023-11-21T10:14:16;4.07;;;3.78;;
14592;SDS011;7383;52.354;9.756;2023-11-21T10:16:46;4.40;;;4.03;;
14592;SDS011;7383;52.354;9.756;2023-11-21T10:19:14;3.33;;;3.13;;
14592;SDS011;7383;52.354;9.756;2023-11-21T10:21:42;5.10;;;4.15;;
14592;SDS011;7383;52.354;9.756;2023-11-21T10:24:10;4.15;;;3.85;;
14592;SDS011;7383;52.354;9.756;2023-11-21T10:26:37;4.18;;;3.88;;
14592;SDS011;7383;52.354;9.756;2023-11-21T10:29:04;4.28;;;3.97;;
14592;SDS011;7383;52.354;9.756;2023-11-21T10:31:31;4.15;;;3.78;;
14592;SDS011;7383;52.354;9.756;2023-11-21T10:34:11;4.40;;;4.05;;
14592;SDS011;7383;52.354;9.756;2023-11-21T10:36:39;3.90;;;3.60;;
14592;SDS011;7383;52.354;9.756;2023-11-21T10:39:05;4.05;;;3.78;;
14592;SDS011;7383;52.354;9.756;2023-11-21T10:41:35;4.30;;;3.97;;
14592;SDS011;7383;52.354;9.756;2023-11-21T10:44:02;3.80;;;3.50;;
14592;SDS011;7383;52.354;9.756;2023-11-21T10:46:33;3.70;;;3.40;;
14592;SDS011;7383;52.354;9.756;2023-11-21T10:49:00;3.63;;;3.40;;
14592;SDS011;7383;52.354;9.756;2023-11-21T10:51:27;4.50;;;4.15;;
14592;SDS011;7383;52.354;9.756;2023-11-21T10:53:53;4.07;;;3.75;;
14592;SDS011;7383;52.354;9.756;2023-11-21T10:56:20;4.03;;;3.58;;
14592;SDS011;7383;52.354;9.756;2023-11-21T10:58:51;3.88;;;3.58;;
14592;SDS011;7383;52.354;9.756;2023-11-21T11:01:19;3.55;;;3.35;;
14592;SDS011;7383;52.354;9.756;2023-11-21T11:03:47;3.95;;;3.55;;
14592;SDS011;7383;52.354;9.756;2023-11-21T11:06:14;3.90;;;3.60;;
14592;SDS011;7383;52.354;9.756;2023-11-21T11:08:42;3.90;;;3.55;;
14592;SDS011;7383;52.354;9.756;2023-11-21T11:11:10;3.38;;;3.08;;
14592;SDS011;7383;52.354;9.756;2023-11-21T11:13:39;3.30;;;3.10;;
14592;SDS011;7383;52.354;9.756;2023-11-21T11:16:11;3.67;;;3.38;;
14592;SDS011;7383;52.354;9.756;2023-11-21T11:18:42;3.67;;;3.38;;
14592;SDS011;7383;52.354;9.756;2023-11-21T11:21:11;3.40;;;3.10;;
14592;SDS011;7383;52.354;9.756;2023-11-21T11:23:49;3.15;;;2.95;;
14592;SDS011;7383;52.354;9.756;2023-11-21T11:26:36;3.45;;;3.25;;
14592;SDS011;7383;52.354;9.756;2023-11-21T11:29:10;4.20;;;3.83;;
14592;SDS011;7383;52.354;9.756;2023-11-21T11:31:50;3.80;;;3.50;;
14592;SDS011;7383;52.354;9.756;2023-11-21T11:34:26;4.30;;;3.90;;
14592;SDS011;7383;52.354;9.756;2023-11-21T11:36:59;3.63;;;3.40;;
14592;SDS011;7383;52.354;9.756;2023-11-21T11:39:28;3.90;;;3.60;;
14592;SDS011;7383;52.354;9.756;2023-11-21T11:42:02;3.90;;;3.60;;
14592;SDS011;7383;52.354;9.756;2023-11-21T11:44:46;3.67;;;3.38;;
14592;SDS011;7383;52.354;9.756;2023-11-21T11:47:20;3.60;;;3.33;;
14592;SDS011;7383;52.354;9.756;2023-11-21T11:50:00;3.90;;;3.60;;
14592;SDS011;7383;52.354;9.756;2023-11-21T11:52:32;3.83;;;3.50;;
14592;SDS011;7383;52.354;9.756;2023-11-21T11:55:00;3.30;;;3.10;;
14592;SDS011;7383;52.354;9.756;2023-11-21T11:57:29;3.55;;;3.25;;
14592;SDS011;7383;52.354;9.756;2023-11-21T12:00:10;3.45;;;3.25;;
14592;SDS011;7383;52.354;9.756;2023-11-21T12:02:47;3.83;;;3.53;;
14592;SDS011;7383;52.354;9.756;2023-11-21T12:05:15;3.30;;;3.00;;
14592;SDS011;7383;52.354;9.756;2023-11-21T12:07:44;3.40;;;3.05;;
14592;SDS011;7383;52.354;9.756;2023-11-21T12:10:13;3.20;;;3.00;;
14592;SDS011;7383;52.354;9.756;2023-11-21T12:12:43;3.75;;;3.45;;
14592;SDS011;7383;52.354;9.756;2023-11-21T12:15:11;3.53;;;3.22;;
14592;SDS011;7383;52.354;9.756;2023-11-21T12:17:41;3.22;;;2.95;;
14592;SDS011;7383;52.354;9.756;2023-11-21T12:20:12;3.00;;;2.75;;
14592;SDS011;7383;52.354;9.756;2023-11-21T12:22:43;2.85;;;2.65;;
14592;SDS011;7383;52.354;9.756;2023-11-21T12:25:12;3.08;;;2.83;;
14592;SDS011;7383;52.354;9.756;2023-11-21T12:27:41;2.88;;;2.67;;
14592;SDS011;7383;52.354;9.756;2023-11-21T12:30:10;2.88;;;2.67;;
14592;SDS011;7383;52.354;9.756;2023-11-21T12:32:39;3.15;;;2.85;;
14592;SDS011;7383;52.354;9.756;2023-11-21T12:35:06;2.80;;;2.60;;
14592;SDS011;7383;52.354;9.756;2023-11-21T12:37:34;2.80;;;2.60;;
14592;SDS011;7383;52.354;9.756;2023-11-21T12:40:01;3.10;;;2.90;;
14592;SDS011;7383;52.354;9.756;2023-11-21T12:42:28;2.85;;;2.65;;
14592;SDS011;7383;52.354;9.756;2023-11-21T12:45:09;2.90;;;2.70;;
14592;SDS011;7383;52.354;9.756;2023-11-21T12:47:45;2.53;;;2.42;;
14592;SDS011;7383;52.354;9.756;2023-11-21T12:50:13;2.92;;;2.72;;
14592;SDS011;7383;52.354;9.756;2023-11-21T12:52:45;2.45;;;2.35;;
14592;SDS011;7383;52.354;9.756;2023-11-21T12:55:13;2.80;;;2.60;;
14592;SDS011;7383;52.354;9.756;2023-11-21T12:57:42;2.90;;;2.70;;
14592;SDS011;7383;52.354;9.756;2023-11-21T13:00:10;2.72;;;2.58;;
14592;SDS011;7383;52.354;9.756;2023-11-21T13:02:50;2.75;;;2.55;;
14592;SDS011;7383;52.354;9.756;2023-11-21T13:05:23;2.70;;;2.50;;
14592;SDS011;7383;52.354;9.756;2023-11-21T13:07:52;2.88;;;2.67;;
14592;SDS011;7383;52.354;9.756;2023-11-21T13:10:19;2.95;;;2.75;;
14592;SDS011;7383;52.354;9.756;2023-11-21T13:12:50;3.25;;;3.05;;
14592;SDS011;7383;52.354;9.756;2023-11-21T13:15:17;3.15;;;2.95;;
14592;SDS011;7383;52.354;9.756;2023-11-21T13:17:45;3.15;;;2.95;;
14592;SDS011;7383;52.354;9.756;2023-11-21T13:20:12;3.22;;;3.03;;
14592;SDS011;7383;52.354;9.756;2023-11-21T13:22:45;2.88;;;2.67;;
14592;SDS011;7383;52.354;9.756;2023-11-21T13:25:21;3.42;;;3.10;;
14592;SDS011;7383;52.354;9.756;2023-11-21T13:27:54;2.83;;;2.72;;
14592;SDS011;7383;52.354;9.756;2023-11-21T13:30:30;3.35;;;3.10;;
14592;SDS011;7383;52.354;9.756;2023-11-21T13:33:13;3.20;;;3.00;;
14592;SDS011;7383;52.354;9.756;2023-11-21T13:35:43;3.25;;;3.05;;
14592;SDS011;7383;52.354;9.756;2023-11-21T13:38:13;3.10;;;2.90;;
14592;SDS011;7383;52.354;9.756;2023-11-21T13:40:46;2.83;;;2.70;;
14592;SDS011;7383;52.354;9.756;2023-11-21T13:43:15;3.67;;;3.38;;
14592;SDS011;7383;52.354;9.756;2023-11-21T13:45:44;3.25;;;3.05;;
14592;SDS011;7383;52.354;9.756;2023-11-21T13:48:12;3.08;;;2.90;;
14592;SDS011;7383;52.354;9.756;2023-11-21T13:50:40;3.10;;;2.90;;
14592;SDS011;7383;52.354;9.756;2023-11-21T13:53:13;2.80;;;2.60;;
14592;SDS011;7383;52.354;9.756;2023-11-21T13:55:48;2.90;;;2.70;;
14592;SDS011;7383;52.354;9.756;2023-11-21T13:58:15;3.42;;;3.22;;
14592;SDS011;7383;52.354;9.756;2023-11-21T14:00:48;3.05;;;2.85;;
14592;SDS011;7383;52.354;9.756;2023-11-21T14:03:21;3.15;;;2.95;;
14592;SDS011;7383;52.354;9.756;2023-11-21T14:05:50;3.13;;;2.90;;
14592;SDS011;7383;52.354;9.756;2023-11-21T14:08:18;3.10;;;2.90;;
14592;SDS011;7383;52.354;9.756;2023-11-21T14:10:47;3.00;;;2.60;;
14592;SDS011;7383;52.354;9.756;2023-11-21T14:13:20;2.40;;;2.20;;
14592;SDS011;7383;52.354;9.756;2023-11-21T14:15:48;2.42;;;2.25;;
14592;SDS011;7383;52.354;9.756;2023-11-21T14:18:17;2.30;;;2.20;;
14592;SDS011;7383;52.354;9.756;2023-11-21T14:20:52;2.13;;;2.03;;
14592;SDS011;7383;52.354;9.756;2023-11-21T14:23:18;2.38;;;2.17;;
14592;SDS011;7383;52.354;9.756;2023-11-21T14:25:47;2.13;;;2.00;;
14592;SDS011;7383;52.354;9.756;2023-11-21T14:28:14;2.60;;;2.40;;
14592;SDS011;7383;52.354;9.756;2023-11-21T14:30:41;2.63;;;2.45;;
14592;SDS011;7383;52.354;9.756;2023-11-21T14:33:08;2.40;;;2.30;;
14592;SDS011;7383;52.354;9.756;2023-11-21T14:35:36;2.90;;;2.70;;
14592;SDS011;7383;52.354;9.756;2023-11-21T14:38:03;2.45;;;2.30;;
14592;SDS011;7383;52.354;9.756;2023-11-21T14:40:30;2.47;;;2.38;;
14592;SDS011;7383;52.354;9.756;2023-11-21T14:43:00;2.55;;;2.35;;
14592;SDS011;7383;52.354;9.756;2023-11-21T14:45:26;2.60;;;2.40;;
14592;SDS011;7383;52.354;9.756;2023-11-21T14:47:54;2.25;;;2.15;;
14592;SDS011;7383;52.354;9.756;2023-11-21T14:50:30;2.80;;;2.60;;
14592;SDS011;7383;52.354;9.756;2023-11-21T14:53:12;2.90;;;2.70;;
14592;SDS011;7383;52.354;9.756;2023-11-21T14:55:38;2.42;;;2.30;;
14592;SDS011;7383;52.354;9.756;2023-11-21T14:58:19;2.53;;;2.35;;
14592;SDS011;7383;52.354;9.756;2023-11-21T15:00:51;2.70;;;2.50;;
14592;SDS011;7383;52.354;9.756;2023-11-21T15:03:22;2.55;;;2.42;;
14592;SDS011;7383;52.354;9.756;2023-11-21T15:06:08;2.60;;;2.40;;